createdAt,value
2019-04-27T00:00:58.875Z,15.20
2019-04-27T00:03:28.100Z,15.50
2019-04-27T00:05:59.149Z,15.60
2019-04-27T00:08:35.062Z,15.80
2019-04-27T00:11:06.849Z,16.00
2019-04-27T00:13:40.416Z,16.20
2019-04-27T00:16:10.015Z,16.20
2019-04-27T00:18:40.410Z,16.40
2019-04-27T00:21:11.607Z,16.60
2019-04-27T00:23:42.998Z,16.60
2019-04-27T00:26:13.108Z,16.70
2019-04-27T00:28:43.422Z,16.70
2019-04-27T00:31:13.315Z,16.70
2019-04-27T00:33:43.470Z,16.70
2019-04-27T00:36:14.936Z,16.80
2019-04-27T00:38:46.280Z,16.80
2019-04-27T00:41:19.147Z,16.80
2019-04-27T00:43:48.974Z,16.80
2019-04-27T00:46:19.625Z,16.80
2019-04-27T00:48:50.539Z,16.80
2019-04-27T00:51:20.146Z,16.80
2019-04-27T00:53:49.656Z,16.80
2019-04-27T00:56:20.924Z,16.80
2019-04-27T00:58:53.594Z,16.80
2019-04-27T01:01:24.934Z,16.90
2019-04-27T01:03:56.278Z,16.90
2019-04-27T01:06:25.873Z,16.80
2019-04-27T01:08:55.524Z,16.80
2019-04-27T01:11:25.200Z,16.90
2019-04-27T01:13:54.774Z,16.90
2019-04-27T01:16:24.394Z,16.90
2019-04-27T01:18:53.918Z,16.90
2019-04-27T01:21:23.408Z,16.90
2019-04-27T01:23:53.028Z,17.00
2019-04-27T01:26:24.583Z,17.00
2019-04-27T01:28:55.716Z,17.10
2019-04-27T01:31:25.193Z,17.10
2019-04-27T01:33:54.732Z,17.10
2019-04-27T01:36:24.126Z,17.10
2019-04-27T01:38:53.597Z,17.20
2019-04-27T01:41:23.142Z,17.20
2019-04-27T01:43:52.498Z,17.20
2019-04-27T01:46:21.951Z,17.20
2019-04-27T01:48:51.440Z,17.20
2019-04-27T01:51:21.158Z,17.20
2019-04-27T01:53:50.758Z,17.10
2019-04-27T01:56:20.362Z,17.10
2019-04-27T01:58:50.293Z,17.10
2019-04-27T02:01:21.632Z,17.00
2019-04-27T02:03:53.104Z,17.00
2019-04-27T02:06:24.228Z,16.90
2019-04-27T02:08:53.839Z,16.80
2019-04-27T02:11:23.439Z,16.80
2019-04-27T02:13:53.030Z,16.70
2019-04-27T02:16:22.557Z,16.70
2019-04-27T02:18:52.165Z,16.60
2019-04-27T02:21:21.997Z,16.60
2019-04-27T02:23:51.658Z,16.60
2019-04-27T02:26:22.697Z,16.50
2019-04-27T02:28:53.723Z,16.50
2019-04-27T02:31:24.769Z,16.40
2019-04-27T02:33:55.786Z,16.40
2019-04-27T02:36:25.355Z,16.30
2019-04-27T02:38:54.859Z,16.30
2019-04-27T02:41:24.311Z,16.30
2019-04-27T02:43:55.589Z,16.30
2019-04-27T02:46:25.121Z,16.30
2019-04-27T02:49:00.064Z,16.30
2019-04-27T02:51:27.324Z,16.30
2019-04-27T02:54:00.234Z,16.20
2019-04-27T02:56:30.529Z,16.20
2019-04-27T02:59:00.323Z,16.20
2019-04-27T03:01:31.573Z,16.10
2019-04-27T03:04:01.364Z,16.10
2019-04-27T03:06:30.841Z,16.10
2019-04-27T03:09:00.838Z,16.10
2019-04-27T03:11:32.460Z,16.00
2019-04-27T03:14:03.629Z,16.00
2019-04-27T03:16:34.758Z,16.00
2019-04-27T03:19:14.971Z,15.90
2019-04-27T03:21:39.600Z,15.90
2019-04-27T03:24:09.925Z,15.90
2019-04-27T03:26:41.951Z,15.90
2019-04-27T03:29:11.875Z,15.90
2019-04-27T03:31:42.568Z,15.90
2019-04-27T03:34:16.340Z,15.90
2019-04-27T03:36:43.971Z,15.90
2019-04-27T03:39:13.695Z,15.90
2019-04-27T03:41:43.298Z,15.90
2019-04-27T03:44:13.514Z,15.90
2019-04-27T03:46:43.124Z,15.90
2019-04-27T03:49:27.786Z,16.00
2019-04-27T03:51:45.599Z,16.00
2019-04-27T03:54:19.410Z,16.00
2019-04-27T03:56:50.857Z,16.00
2019-04-27T03:59:22.273Z,16.10
2019-04-27T04:01:51.926Z,16.10
2019-04-27T04:04:21.828Z,16.10
2019-04-27T04:06:51.444Z,16.10
2019-04-27T04:09:22.694Z,16.10
2019-04-27T04:11:53.798Z,16.10
2019-04-27T04:14:24.840Z,16.20
2019-04-27T04:17:01.724Z,16.20
2019-04-27T04:19:29.588Z,16.20
2019-04-27T04:21:59.809Z,16.30
2019-04-27T04:24:31.816Z,16.30
2019-04-27T04:27:00.713Z,16.30
2019-04-27T04:29:30.760Z,16.40
2019-04-27T04:32:00.683Z,16.40
2019-04-27T04:34:30.225Z,16.50
2019-04-27T04:37:00.615Z,16.60
2019-04-27T04:39:31.503Z,16.60
2019-04-27T04:42:02.531Z,16.70
2019-04-27T04:44:33.773Z,16.70
2019-04-27T04:47:04.869Z,16.80
2019-04-27T04:49:34.525Z,16.80
2019-04-27T04:52:03.960Z,16.90
2019-04-27T04:54:33.544Z,16.90
2019-04-27T04:57:03.144Z,17.00
2019-04-27T04:59:43.732Z,17.10
2019-04-27T05:02:12.793Z,17.20
2019-04-27T05:04:42.477Z,17.20
2019-04-27T05:07:17.102Z,17.30
2019-04-27T05:09:56.022Z,17.40
2019-04-27T05:12:26.132Z,17.50
2019-04-27T05:14:59.068Z,17.60
2019-04-27T05:17:31.582Z,17.60
2019-04-27T05:20:02.775Z,17.80
2019-04-27T05:22:32.392Z,17.90
2019-04-27T05:25:01.968Z,18.00
2019-04-27T05:27:31.714Z,18.20
2019-04-27T05:30:01.306Z,18.40
2019-04-27T05:32:31.973Z,18.60
2019-04-27T05:35:01.499Z,18.70
2019-04-27T05:37:31.790Z,18.80
2019-04-27T05:40:01.581Z,19.00
2019-04-27T05:42:30.944Z,19.10
2019-04-27T05:45:03.451Z,19.30
2019-04-27T05:47:34.711Z,19.40
2019-04-27T05:50:06.947Z,19.50
2019-04-27T05:52:36.366Z,19.70
2019-04-27T05:55:06.709Z,20.00
2019-04-27T05:57:36.081Z,20.00
2019-04-27T06:00:09.160Z,20.30
2019-04-27T06:02:39.822Z,20.40
2019-04-27T06:05:09.886Z,20.50
2019-04-27T06:07:39.683Z,20.70
2019-04-27T06:10:10.472Z,20.90
2019-04-27T06:12:39.981Z,21.00
2019-04-27T06:15:09.888Z,21.20
2019-04-27T06:17:39.298Z,21.30
2019-04-27T06:20:09.197Z,21.50
2019-04-27T06:22:39.106Z,21.60
2019-04-27T06:25:11.794Z,21.70
2019-04-27T06:27:39.867Z,21.60
2019-04-27T06:30:11.732Z,21.40
2019-04-27T06:32:41.135Z,21.50
2019-04-27T06:35:12.381Z,21.50
2019-04-27T06:37:41.956Z,21.60
2019-04-27T06:40:12.331Z,21.40
2019-04-27T06:42:41.816Z,21.30
2019-04-27T06:45:11.383Z,21.30
2019-04-27T06:47:41.473Z,21.30
2019-04-27T06:50:12.148Z,21.30
2019-04-27T06:52:41.522Z,21.40
2019-04-27T06:55:10.951Z,21.40
2019-04-27T06:57:41.243Z,21.30
2019-04-27T07:00:11.113Z,21.50
2019-04-27T07:02:40.615Z,21.40
2019-04-27T07:05:10.110Z,21.30
2019-04-27T07:07:39.677Z,21.30
2019-04-27T07:10:09.209Z,21.30
2019-04-27T07:12:40.982Z,21.20
2019-04-27T07:15:09.984Z,21.20
2019-04-27T07:17:39.341Z,21.30
2019-04-27T07:20:09.163Z,21.30
2019-04-27T07:22:39.666Z,21.40
2019-04-27T07:25:09.313Z,21.50
2019-04-27T07:27:39.454Z,21.50
2019-04-27T07:30:11.761Z,21.60
2019-04-27T07:32:41.586Z,21.60
2019-04-27T07:35:11.218Z,21.80
2019-04-27T07:37:40.647Z,21.80
2019-04-27T07:40:10.476Z,21.90
2019-04-27T07:42:41.600Z,22.00
2019-04-27T07:45:12.760Z,22.10
2019-04-27T07:47:43.844Z,22.10
2019-04-27T07:50:13.636Z,22.10
2019-04-27T07:52:43.115Z,22.30
2019-04-27T07:55:12.725Z,22.30
2019-04-27T07:57:42.315Z,22.30
2019-04-27T08:00:12.448Z,22.40
2019-04-27T08:02:41.943Z,22.60
2019-04-27T08:05:11.772Z,22.60
2019-04-27T08:07:41.266Z,22.50
2019-04-27T08:10:10.964Z,22.50
2019-04-27T08:12:40.683Z,22.60
2019-04-27T08:15:10.446Z,22.50
2019-04-27T08:17:42.412Z,22.60
2019-04-27T08:20:11.503Z,22.70
2019-04-27T08:22:41.046Z,22.70
2019-04-27T08:25:10.561Z,22.60
2019-04-27T08:27:41.713Z,22.30
2019-04-27T08:30:12.969Z,22.10
2019-04-27T08:32:44.778Z,22.20
2019-04-27T08:35:14.530Z,22.30
2019-04-27T08:37:44.016Z,22.20
2019-04-27T08:40:13.973Z,21.80
2019-04-27T08:42:43.547Z,21.70
2019-04-27T08:45:13.257Z,21.80
2019-04-27T08:47:42.757Z,21.80
2019-04-27T08:50:12.347Z,21.80
2019-04-27T08:52:42.028Z,21.70
2019-04-27T08:55:11.786Z,21.40
2019-04-27T08:57:41.285Z,21.40
2019-04-27T09:00:11.308Z,21.40
2019-04-27T09:02:46.786Z,21.50
2019-04-27T09:05:12.574Z,21.60
2019-04-27T09:07:43.711Z,21.60
2019-04-27T09:10:13.749Z,21.70
2019-04-27T09:12:44.861Z,21.70
2019-04-27T09:15:16.219Z,21.80
2019-04-27T09:17:48.833Z,21.80
2019-04-27T09:20:20.142Z,21.90
2019-04-27T09:22:49.660Z,22.20
2019-04-27T09:25:19.386Z,22.30
2019-04-27T09:27:49.344Z,22.50
2019-04-27T09:30:20.110Z,22.60
2019-04-27T09:32:49.676Z,22.80
2019-04-27T09:35:19.214Z,22.80
2019-04-27T09:37:48.734Z,22.80
2019-04-27T09:40:21.199Z,22.80
2019-04-27T09:42:50.702Z,22.70
2019-04-27T09:45:21.439Z,22.80
2019-04-27T09:47:50.943Z,22.90
2019-04-27T09:50:21.280Z,22.70
2019-04-27T09:52:50.759Z,22.70
2019-04-27T09:55:21.356Z,22.60
2019-04-27T09:57:50.806Z,22.60
2019-04-27T10:00:21.806Z,22.60
2019-04-27T10:02:51.355Z,22.40
2019-04-27T10:05:20.908Z,22.50
2019-04-27T10:07:50.564Z,22.60
2019-04-27T10:10:20.556Z,22.70
2019-04-27T10:12:50.022Z,22.70
2019-04-27T10:15:20.555Z,22.60
2019-04-27T10:17:49.921Z,22.70
2019-04-27T10:20:20.022Z,22.80
2019-04-27T10:22:49.799Z,22.90
2019-04-27T10:25:20.974Z,22.70
2019-04-27T10:27:55.385Z,22.80
2019-04-27T10:30:25.786Z,22.90
2019-04-27T10:32:55.456Z,22.70
2019-04-27T10:35:26.018Z,22.80
2019-04-27T10:37:55.504Z,22.90
2019-04-27T10:40:26.388Z,23.00
2019-04-27T10:42:56.161Z,23.10
2019-04-27T10:45:29.032Z,22.80
2019-04-27T10:48:00.656Z,22.70
2019-04-27T10:50:30.152Z,22.60
2019-04-27T10:52:59.542Z,22.60
2019-04-27T10:55:29.379Z,22.80
2019-04-27T10:57:59.285Z,22.80
2019-04-27T11:00:30.404Z,22.80
2019-04-27T11:03:01.235Z,22.90
2019-04-27T11:05:33.403Z,23.10
2019-04-27T11:08:02.852Z,23.10
2019-04-27T11:10:32.235Z,23.00
2019-04-27T11:13:01.668Z,22.90
2019-04-27T11:15:31.359Z,22.70
2019-04-27T11:18:00.865Z,22.70
2019-04-27T11:20:30.224Z,22.70
2019-04-27T11:23:07.016Z,22.60
2019-04-27T11:25:30.741Z,22.40
2019-04-27T11:28:00.195Z,22.20
2019-04-27T11:30:29.677Z,22.30
2019-04-27T11:32:59.411Z,22.40
2019-04-27T11:35:30.459Z,22.30
2019-04-27T11:38:00.231Z,22.50
2019-04-27T11:40:31.034Z,22.50
2019-04-27T11:43:00.500Z,22.60
2019-04-27T11:45:34.234Z,22.70
2019-04-27T11:48:06.106Z,22.80
2019-04-27T11:50:35.869Z,22.90
2019-04-27T11:53:06.222Z,22.80
2019-04-27T11:55:35.861Z,22.70
2019-04-27T11:58:06.530Z,22.80
2019-04-27T12:00:37.956Z,23.00
2019-04-27T12:03:07.379Z,23.10
2019-04-27T12:05:36.805Z,23.30
2019-04-27T12:08:06.403Z,23.40
2019-04-27T12:10:36.385Z,23.40
2019-04-27T12:13:07.637Z,23.60
2019-04-27T12:15:37.156Z,23.60
2019-04-27T12:18:08.905Z,23.60
2019-04-27T12:20:37.642Z,23.80
2019-04-27T12:23:07.092Z,23.90
2019-04-27T12:25:37.381Z,23.80
2019-04-27T12:28:08.686Z,23.80
2019-04-27T12:30:39.741Z,23.80
2019-04-27T12:33:09.294Z,23.80
2019-04-27T12:35:38.736Z,23.50
2019-04-27T12:38:08.205Z,23.30
2019-04-27T12:40:37.744Z,23.30
2019-04-27T12:43:08.368Z,23.30
2019-04-27T12:45:40.986Z,23.40
2019-04-27T12:48:09.117Z,23.50
2019-04-27T12:50:38.634Z,23.40
2019-04-27T12:53:09.795Z,23.40
2019-04-27T12:55:40.790Z,23.50
2019-04-27T12:58:11.887Z,23.30
2019-04-27T13:00:45.031Z,23.20
2019-04-27T13:03:16.035Z,23.00
2019-04-27T13:05:45.685Z,22.70
2019-04-27T13:08:15.118Z,22.90
2019-04-27T13:10:44.605Z,23.00
2019-04-27T13:13:14.015Z,23.20
2019-04-27T13:15:43.434Z,23.30
2019-04-27T13:18:12.888Z,23.30
2019-04-27T13:20:42.519Z,23.50
2019-04-27T13:23:12.003Z,23.50
2019-04-27T13:25:41.357Z,23.60
2019-04-27T13:28:11.877Z,23.40
2019-04-27T13:30:41.316Z,23.40
2019-04-27T13:33:10.759Z,23.50
2019-04-27T13:35:40.363Z,23.40
2019-04-27T13:38:11.012Z,23.20
2019-04-27T13:40:41.710Z,23.10
2019-04-27T13:43:12.836Z,23.10
2019-04-27T13:45:42.040Z,23.00
2019-04-27T13:48:13.232Z,23.20
2019-04-27T13:50:47.735Z,23.20
2019-04-27T13:53:18.100Z,23.10
2019-04-27T13:55:48.534Z,23.00
2019-04-27T13:58:19.229Z,22.90
2019-04-27T14:00:49.142Z,22.80
2019-04-27T14:03:20.894Z,22.70
2019-04-27T14:05:49.626Z,22.70
2019-04-27T14:08:19.011Z,22.70
2019-04-27T14:10:48.547Z,22.50
2019-04-27T14:13:19.761Z,22.50
2019-04-27T14:15:49.805Z,22.50
2019-04-27T14:18:19.587Z,22.50
2019-04-27T14:20:49.642Z,22.40
2019-04-27T14:23:21.054Z,22.20
2019-04-27T14:25:50.964Z,22.00
2019-04-27T14:28:20.847Z,21.80
2019-04-27T14:30:50.838Z,22.00
2019-04-27T14:33:20.729Z,22.10
2019-04-27T14:35:50.587Z,22.20
2019-04-27T14:38:20.483Z,22.20
2019-04-27T14:40:59.390Z,22.10
2019-04-27T14:43:33.470Z,22.10
2019-04-27T14:46:05.719Z,22.10
2019-04-27T14:48:35.497Z,22.10
2019-04-27T14:51:05.360Z,22.00
2019-04-27T14:53:35.253Z,22.00
2019-04-27T14:56:05.109Z,21.90
2019-04-27T14:58:35.247Z,21.70
2019-04-27T15:01:05.155Z,21.80
2019-04-27T15:03:34.969Z,21.80
2019-04-27T15:06:04.782Z,21.70
2019-04-27T15:08:38.263Z,21.50
2019-04-27T15:11:10.235Z,21.60
2019-04-27T15:13:37.763Z,21.60
2019-04-27T15:16:08.822Z,21.60
2019-04-27T15:18:43.587Z,21.60
2019-04-27T15:21:11.930Z,21.40
2019-04-27T15:23:41.993Z,21.40
2019-04-27T15:26:15.504Z,21.40
2019-04-27T15:28:49.244Z,21.30
2019-04-27T15:31:23.644Z,21.20
2019-04-27T15:33:54.434Z,21.20
2019-04-27T15:36:23.851Z,21.10
2019-04-27T15:38:55.691Z,21.00
2019-04-27T15:41:31.549Z,20.90
2019-04-27T15:44:07.025Z,20.70
2019-04-27T15:46:36.167Z,20.60
2019-04-27T15:49:09.786Z,20.40
2019-04-27T15:51:38.256Z,20.30
2019-04-27T15:54:08.301Z,20.30
2019-04-27T15:56:38.172Z,20.30
2019-04-27T15:59:08.628Z,20.10
2019-04-27T16:01:39.581Z,20.00
2019-04-27T16:04:11.206Z,20.00
2019-04-27T16:06:42.939Z,19.80
2019-04-27T16:09:15.992Z,19.80
2019-04-27T16:11:50.247Z,19.60
2019-04-27T16:14:15.960Z,19.40
2019-04-27T16:16:46.449Z,19.20
2019-04-27T16:19:15.962Z,19.30
2019-04-27T16:21:47.686Z,19.10
2019-04-27T16:24:20.839Z,19.00
2019-04-27T16:26:54.693Z,18.90
2019-04-27T16:29:22.976Z,18.70
2019-04-27T16:31:50.800Z,18.40
2019-04-27T16:34:20.181Z,18.40
2019-04-27T16:36:49.713Z,18.40
2019-04-27T16:39:20.455Z,18.30
2019-04-27T16:41:50.313Z,18.00
2019-04-27T16:44:20.011Z,17.90
2019-04-27T16:46:49.486Z,17.70
2019-04-27T16:49:20.677Z,17.60
2019-04-27T16:51:50.162Z,17.50
2019-04-27T16:54:21.380Z,17.40
2019-04-27T16:57:02.029Z,17.30
2019-04-27T16:59:42.641Z,17.30
2019-04-27T17:01:55.602Z,17.20
2019-04-27T17:04:25.115Z,17.10
2019-04-27T17:06:54.581Z,17.00
2019-04-27T17:09:24.060Z,16.90
2019-04-27T17:11:53.651Z,16.70
2019-04-27T17:14:29.204Z,16.50
2019-04-27T17:17:03.761Z,16.40
2019-04-27T17:19:35.932Z,16.40
2019-04-27T17:22:04.393Z,16.30
2019-04-27T17:24:42.014Z,16.10
2019-04-27T17:27:06.489Z,16.10
2019-04-27T17:29:38.633Z,16.00
2019-04-27T17:32:09.996Z,16.00
2019-04-27T17:34:39.766Z,15.90
2019-04-27T17:37:09.626Z,15.90
2019-04-27T17:39:39.216Z,15.70
2019-04-27T17:42:08.724Z,15.50
2019-04-27T17:44:39.370Z,15.40
2019-04-27T17:47:10.637Z,15.20
2019-04-27T17:49:41.448Z,15.20
2019-04-27T17:52:13.035Z,15.20
2019-04-27T17:54:47.515Z,15.00
2019-04-27T17:57:13.687Z,14.90
2019-04-27T17:59:43.266Z,15.00
2019-04-27T18:02:12.725Z,14.90
2019-04-27T18:04:42.134Z,15.00
2019-04-27T18:07:11.547Z,14.80
2019-04-27T18:09:43.729Z,14.70
2019-04-27T18:12:14.901Z,14.90
2019-04-27T18:14:43.660Z,14.80
2019-04-27T18:17:14.190Z,14.80
2019-04-27T18:19:45.583Z,14.90
2019-04-27T18:22:15.244Z,14.80
2019-04-27T18:24:46.383Z,14.70
2019-04-27T18:27:18.350Z,14.60
2019-04-27T18:29:48.648Z,14.60
2019-04-27T18:32:23.649Z,14.60
2019-04-27T18:34:51.475Z,14.70
2019-04-27T18:37:24.687Z,14.70
2019-04-27T18:39:54.939Z,14.60
2019-04-27T18:42:27.358Z,14.60
2019-04-27T18:44:54.493Z,14.60
2019-04-27T18:47:25.056Z,14.40
2019-04-27T18:49:54.335Z,14.50
2019-04-27T18:52:25.995Z,14.40
2019-04-27T18:54:55.571Z,14.50
2019-04-27T18:57:24.969Z,14.50
2019-04-27T18:59:54.526Z,14.40
2019-04-27T19:02:24.006Z,14.50
2019-04-27T19:04:53.398Z,14.50
2019-04-27T19:07:22.869Z,14.50
2019-04-27T19:09:52.324Z,14.60
2019-04-27T19:12:21.773Z,14.60
2019-04-27T19:14:51.266Z,14.50
2019-04-27T19:17:21.862Z,14.50
2019-04-27T19:19:51.285Z,14.60
2019-04-27T19:22:20.754Z,14.40
2019-04-27T19:24:50.309Z,14.20
2019-04-27T19:27:21.618Z,14.20
2019-04-27T19:29:52.892Z,14.10
2019-04-27T19:32:22.446Z,14.10
2019-04-27T19:34:51.927Z,14.10
2019-04-27T19:37:21.361Z,14.10
2019-04-27T19:39:50.913Z,14.10
2019-04-27T19:42:20.630Z,14.20
2019-04-27T19:44:50.188Z,14.20
2019-04-27T19:47:19.663Z,14.20
2019-04-27T19:49:49.088Z,14.30
2019-04-27T19:52:18.616Z,14.30
2019-04-27T19:54:49.391Z,14.30
2019-04-27T19:57:30.917Z,14.30
2019-04-27T19:59:53.160Z,14.20
2019-04-27T20:02:23.903Z,14.30
2019-04-27T20:04:55.553Z,14.20
2019-04-27T20:07:26.274Z,14.20
2019-04-27T20:09:58.494Z,14.20
2019-04-27T20:12:28.055Z,14.30
2019-04-27T20:14:57.512Z,14.20
2019-04-27T20:17:28.114Z,14.10
2019-04-27T20:19:58.110Z,14.20
2019-04-27T20:22:27.670Z,14.20
2019-04-27T20:24:57.327Z,14.20
2019-04-27T20:27:26.837Z,14.10
2019-04-27T20:29:56.388Z,13.90
2019-04-27T20:32:25.968Z,13.90
2019-04-27T20:34:55.543Z,13.80
2019-04-27T20:37:24.941Z,14.00
2019-04-27T20:39:54.453Z,13.90
2019-04-27T20:42:23.881Z,13.90
2019-04-27T20:44:53.397Z,14.00
2019-04-27T20:47:22.967Z,14.00
2019-04-27T20:49:52.469Z,14.10
2019-04-27T20:52:23.463Z,14.10
2019-04-27T20:54:52.897Z,14.10
2019-04-27T20:57:22.339Z,14.10
2019-04-27T20:59:52.276Z,13.90
2019-04-27T21:02:24.122Z,13.80
2019-04-27T21:04:57.399Z,13.90
2019-04-27T21:07:31.151Z,14.00
2019-04-27T21:10:00.614Z,14.10
2019-04-27T21:12:31.472Z,14.00
2019-04-27T21:15:01.004Z,14.00
2019-04-27T21:17:30.642Z,13.80
2019-04-27T21:20:00.259Z,13.80
2019-04-27T21:22:31.358Z,13.80
2019-04-27T21:25:01.632Z,13.70
2019-04-27T21:27:31.948Z,13.70
2019-04-27T21:30:02.751Z,13.70
2019-04-27T21:32:33.891Z,13.60
2019-04-27T21:35:03.444Z,13.80
2019-04-27T21:37:33.357Z,13.70
2019-04-27T21:40:04.665Z,13.80
2019-04-27T21:42:34.283Z,13.80
2019-04-27T21:45:05.689Z,13.70
2019-04-27T21:47:35.173Z,13.70
2019-04-27T21:50:06.513Z,13.60
2019-04-27T21:52:38.385Z,13.70
2019-04-27T21:55:11.511Z,13.70
2019-04-27T21:57:41.134Z,13.70
2019-04-27T22:00:16.406Z,13.60
2019-04-27T22:02:48.035Z,13.50
2019-04-27T22:05:17.557Z,13.50
2019-04-27T22:07:47.011Z,13.40
2019-04-27T22:10:16.552Z,13.40
2019-04-27T22:12:46.069Z,13.40
2019-04-27T22:15:15.481Z,13.40
2019-04-27T22:17:44.937Z,13.40
2019-04-27T22:20:16.489Z,13.30
2019-04-27T22:22:47.661Z,13.30
2019-04-27T22:25:18.672Z,13.40
2019-04-27T22:27:48.139Z,13.40
2019-04-27T22:30:17.780Z,13.30
2019-04-27T22:32:47.193Z,13.40
2019-04-27T22:35:16.793Z,13.40
2019-04-27T22:37:46.292Z,13.30
2019-04-27T22:40:15.513Z,13.30
2019-04-27T22:42:46.656Z,13.20
2019-04-27T22:45:17.774Z,13.20
2019-04-27T22:47:47.217Z,13.20
2019-04-27T22:50:16.843Z,13.20
2019-04-27T22:52:46.363Z,13.20
2019-04-27T22:55:16.028Z,13.20
2019-04-27T22:57:47.103Z,13.30
2019-04-27T23:00:18.627Z,13.30
2019-04-27T23:02:52.260Z,13.30
2019-04-27T23:05:21.973Z,13.40
2019-04-27T23:07:51.817Z,13.50
2019-04-27T23:10:21.442Z,13.50
2019-04-27T23:12:51.116Z,13.60
2019-04-27T23:15:22.414Z,13.60
2019-04-27T23:17:52.982Z,13.70
2019-04-27T23:20:22.615Z,13.70
2019-04-27T23:22:52.095Z,13.80
2019-04-27T23:25:21.553Z,13.70
2019-04-27T23:27:51.494Z,13.60
2019-04-27T23:30:23.240Z,13.70
2019-04-27T23:32:53.596Z,13.60
2019-04-27T23:35:23.047Z,13.50
2019-04-27T23:37:52.845Z,13.30
2019-04-27T23:40:22.678Z,13.30
2019-04-27T23:42:52.124Z,13.20
2019-04-27T23:45:22.513Z,13.20
2019-04-27T23:47:52.186Z,13.20
2019-04-27T23:50:21.997Z,13.20
2019-04-27T23:52:54.355Z,13.30
2019-04-27T23:55:25.551Z,13.30
2019-04-27T23:57:55.096Z,13.30
